ADDS METAR Data

Data at: 0528 UTC 20 Sep 2017

METAR for:KATL (Atlanta/Hartsfield-J, GA, US)
Text:KATL 200452Z 00000KT 10SM SCT200 23/20 A3001 RMK AO2 SLP150 T02280200 403170189
Temperature: 22.8°C ( 73°F)
Dewpoint: 20.0°C ( 68°F) [RH = 84%]
Pressure (altimeter):30.01 inches Hg (1016.3 mb) [Sea level pressure: 1015.0 mb]
Winds:calm
Visibility:10 or more sm (16+ km)
Ceiling:at least 12,000 feet AGL
Clouds: scattered clouds at 20000 feet AGL